sensor_id;sensor_type;location;lat;lon;timestamp;pressure;altitude;pressure_sealevel;temperature;humidity
7832;BME280;3961;42.058;25.586;2023-04-28T00:00:28;63420.00;;;10.66;100.00
7832;BME280;3961;42.058;25.586;2023-04-28T00:02:53;63414.47;;;10.63;100.00
7832;BME280;3961;42.058;25.586;2023-04-28T00:05:19;63411.00;;;10.60;100.00
7832;BME280;3961;42.058;25.586;2023-04-28T00:07:47;63409.50;;;10.61;100.00
7832;BME280;3961;42.058;25.586;2023-04-28T00:10:12;63425.41;;;10.73;100.00
7832;BME280;3961;42.058;25.586;2023-04-28T00:12:38;63417.94;;;10.66;100.00
7832;BME280;3961;42.058;25.586;2023-04-28T00:15:03;63390.66;;;10.47;100.00
7832;BME280;3961;42.058;25.586;2023-04-28T00:17:29;63414.22;;;10.61;100.00
7832;BME280;3961;42.058;25.586;2023-04-28T00:19:54;63398.28;;;10.49;100.00
7832;BME280;3961;42.058;25.586;2023-04-28T00:22:20;63398.53;;;10.52;100.00
7832;BME280;3961;42.058;25.586;2023-04-28T00:24:46;63393.31;;;10.47;100.00
7832;BME280;3961;42.058;25.586;2023-04-28T00:27:11;63405.22;;;10.55;100.00
7832;BME280;3961;42.058;25.586;2023-04-28T00:29:37;63369.75;;;10.22;100.00
7832;BME280;3961;42.058;25.586;2023-04-28T00:32:02;63398.28;;;10.49;100.00
7832;BME280;3961;42.058;25.586;2023-04-28T00:34:31;63381.22;;;10.36;100.00
7832;BME280;3961;42.058;25.586;2023-04-28T00:36:57;63378.66;;;10.32;100.00
7832;BME280;3961;42.058;25.586;2023-04-28T00:39:23;63367.34;;;10.24;100.00
7832;BME280;3961;42.058;25.586;2023-04-28T00:41:49;63368.50;;;10.25;100.00
7832;BME280;3961;42.058;25.586;2023-04-28T00:44:15;63374.72;;;10.24;100.00
7832;BME280;3961;42.058;25.586;2023-04-28T00:46:41;63353.47;;;10.12;100.00
7832;BME280;3961;42.058;25.586;2023-04-28T00:49:07;63286.53;;;9.53;100.00
7832;BME280;3961;42.058;25.586;2023-04-28T00:51:32;63339.03;;;9.99;100.00
7832;BME280;3961;42.058;25.586;2023-04-28T00:53:58;63342.50;;;10.02;100.00
7832;BME280;3961;42.058;25.586;2023-04-28T00:56:24;63336.50;;;9.95;100.00
7832;BME280;3961;42.058;25.586;2023-04-28T00:58:52;63348.84;;;10.08;100.00
7832;BME280;3961;42.058;25.586;2023-04-28T01:01:17;63339.97;;;9.98;100.00
7832;BME280;3961;42.058;25.586;2023-04-28T01:03:43;63333.28;;;9.94;100.00
7832;BME280;3961;42.058;25.586;2023-04-28T01:06:09;63315.50;;;9.74;100.00
7832;BME280;3961;42.058;25.586;2023-04-28T01:08:36;63335.00;;;9.96;100.00
7832;BME280;3961;42.058;25.586;2023-04-28T01:11:02;63328.19;;;9.85;100.00
7832;BME280;3961;42.058;25.586;2023-04-28T01:13:27;63333.63;;;9.92;100.00
7832;BME280;3961;42.058;25.586;2023-04-28T01:15:54;63313.53;;;9.70;100.00
7832;BME280;3961;42.058;25.586;2023-04-28T01:18:20;63284.31;;;9.47;100.00
7832;BME280;3961;42.058;25.586;2023-04-28T01:20:45;63275.81;;;9.46;100.00
7832;BME280;3961;42.058;25.586;2023-04-28T01:23:12;63284.81;;;9.52;100.00
7832;BME280;3961;42.058;25.586;2023-04-28T01:25:37;63298.06;;;9.63;100.00
7832;BME280;3961;42.058;25.586;2023-04-28T01:28:03;63300.38;;;9.65;100.00
7832;BME280;3961;42.058;25.586;2023-04-28T01:30:28;63292.41;;;9.54;100.00
7832;BME280;3961;42.058;25.586;2023-04-28T01:32:54;63291.06;;;9.62;100.00
7832;BME280;3961;42.058;25.586;2023-04-28T01:35:20;63302.47;;;9.65;100.00
7832;BME280;3961;42.058;25.586;2023-04-28T01:37:46;63300.38;;;9.65;100.00
7832;BME280;3961;42.058;25.586;2023-04-28T01:40:12;63314.44;;;9.68;100.00
7832;BME280;3961;42.058;25.586;2023-04-28T01:42:37;63283.41;;;9.48;100.00
7832;BME280;3961;42.058;25.586;2023-04-28T01:45:03;63270.75;;;9.37;100.00
7832;BME280;3961;42.058;25.586;2023-04-28T01:47:30;63283.66;;;9.51;100.00
7832;BME280;3961;42.058;25.586;2023-04-28T01:49:55;63303.38;;;9.63;100.00
7832;BME280;3961;42.058;25.586;2023-04-28T01:52:21;63300.50;;;9.61;100.00
7832;BME280;3961;42.058;25.586;2023-04-28T01:54:49;63266.59;;;9.38;100.00
7832;BME280;3961;42.058;25.586;2023-04-28T01:57:15;63303.28;;;9.68;100.00
7832;BME280;3961;42.058;25.586;2023-04-28T01:59:41;63299.00;;;9.62;100.00
7832;BME280;3961;42.058;25.586;2023-04-28T02:02:07;63290.91;;;9.55;100.00
7832;BME280;3961;42.058;25.586;2023-04-28T02:04:32;63284.00;;;9.49;100.00
7832;BME280;3961;42.058;25.586;2023-04-28T02:06:58;63270.16;;;9.36;100.00
7832;BME280;3961;42.058;25.586;2023-04-28T02:09:24;63256.06;;;9.22;100.00
7832;BME280;3961;42.058;25.586;2023-04-28T02:11:49;63229.56;;;8.98;100.00
7832;BME280;3961;42.058;25.586;2023-04-28T02:14:15;63213.31;;;8.89;100.00
7832;BME280;3961;42.058;25.586;2023-04-28T02:16:41;63217.69;;;8.90;100.00
7832;BME280;3961;42.058;25.586;2023-04-28T02:19:06;63222.53;;;8.97;100.00
7832;BME280;3961;42.058;25.586;2023-04-28T02:21:32;63206.38;;;8.83;100.00
7832;BME280;3961;42.058;25.586;2023-04-28T02:23:58;63200.41;;;8.75;100.00
7832;BME280;3961;42.058;25.586;2023-04-28T02:26:23;63207.88;;;8.82;100.00
7832;BME280;3961;42.058;25.586;2023-04-28T02:28:50;63217.22;;;8.85;100.00
7832;BME280;3961;42.058;25.586;2023-04-28T02:31:15;63204.19;;;8.76;100.00
7832;BME280;3961;42.058;25.586;2023-04-28T02:33:41;63208.69;;;8.85;100.00
7832;BME280;3961;42.058;25.586;2023-04-28T02:36:07;63217.09;;;8.90;100.00
7832;BME280;3961;42.058;25.586;2023-04-28T02:38:33;63245.94;;;9.15;100.00
7832;BME280;3961;42.058;25.586;2023-04-28T02:40:59;63238.66;;;9.11;100.00
7832;BME280;3961;42.058;25.586;2023-04-28T02:43:26;63268.66;;;9.37;100.00
7832;BME280;3961;42.058;25.586;2023-04-28T02:45:52;63280.19;;;9.48;100.00
7832;BME280;3961;42.058;25.586;2023-04-28T02:48:18;63279.16;;;9.42;100.00
7832;BME280;3961;42.058;25.586;2023-04-28T02:50:43;63280.19;;;9.48;100.00
7832;BME280;3961;42.058;25.586;2023-04-28T02:53:11;63247.41;;;9.14;100.00
7832;BME280;3961;42.058;25.586;2023-04-28T02:55:36;63236.38;;;9.09;100.00
7832;BME280;3961;42.058;25.586;2023-04-28T02:58:02;63204.06;;;8.81;100.00
7832;BME280;3961;42.058;25.586;2023-04-28T03:00:27;63218.59;;;8.89;100.00
7832;BME280;3961;42.058;25.586;2023-04-28T03:02:53;63246.75;;;9.18;100.00
7832;BME280;3961;42.058;25.586;2023-04-28T03:05:19;63219.66;;;8.94;100.00
7832;BME280;3961;42.058;25.586;2023-04-28T03:07:44;63217.00;;;8.94;100.00
7832;BME280;3961;42.058;25.586;2023-04-28T03:10:10;63250.19;;;9.21;100.00
7832;BME280;3961;42.058;25.586;2023-04-28T03:12:35;63263.34;;;9.26;100.00
7832;BME280;3961;42.058;25.586;2023-04-28T03:15:01;63265.19;;;9.34;100.00
7832;BME280;3961;42.058;25.586;2023-04-28T03:17:26;63274.19;;;9.40;100.00
7832;BME280;3961;42.058;25.586;2023-04-28T03:19:52;63280.19;;;9.48;100.00
7832;BME280;3961;42.058;25.586;2023-04-28T03:22:17;63272.22;;;9.36;100.00
7832;BME280;3961;42.058;25.586;2023-04-28T03:24:43;63248.47;;;9.20;100.00
7832;BME280;3961;42.058;25.586;2023-04-28T03:27:08;63249.06;;;9.20;100.00
7832;BME280;3961;42.058;25.586;2023-04-28T03:29:34;63258.97;;;9.24;100.00
7832;BME280;3961;42.058;25.586;2023-04-28T03:32:00;63277.06;;;9.42;100.00
7832;BME280;3961;42.058;25.586;2023-04-28T03:34:26;63282.84;;;9.48;100.00
7832;BME280;3961;42.058;25.586;2023-04-28T03:36:51;63266.34;;;9.35;100.00
7832;BME280;3961;42.058;25.586;2023-04-28T03:39:18;63259.66;;;9.32;100.00
7832;BME280;3961;42.058;25.586;2023-04-28T03:41:43;63284.47;;;9.54;100.00
7832;BME280;3961;42.058;25.586;2023-04-28T03:44:09;63300.97;;;9.66;100.00
7832;BME280;3961;42.058;25.586;2023-04-28T03:46:34;63310.88;;;9.70;100.00
7832;BME280;3961;42.058;25.586;2023-04-28T03:49:00;63318.59;;;9.79;100.00
7832;BME280;3961;42.058;25.586;2023-04-28T03:51:29;63324.38;;;9.84;100.00
7832;BME280;3961;42.058;25.586;2023-04-28T03:53:54;63346.91;;;10.04;100.00
7832;BME280;3961;42.058;25.586;2023-04-28T03:56:20;63351.72;;;10.10;100.00
7832;BME280;3961;42.058;25.586;2023-04-28T03:58:46;63348.03;;;10.05;100.00
7832;BME280;3961;42.058;25.586;2023-04-28T04:01:11;63328.41;;;9.88;100.00
7832;BME280;3961;42.058;25.586;2023-04-28T04:03:37;63374.16;;;10.23;100.00
7832;BME280;3961;42.058;25.586;2023-04-28T04:06:02;63398.84;;;10.50;100.00
7832;BME280;3961;42.058;25.586;2023-04-28T04:08:28;63395.16;;;10.44;100.00
7832;BME280;3961;42.058;25.586;2023-04-28T04:10:54;63412.63;;;10.66;100.00
7832;BME280;3961;42.058;25.586;2023-04-28T04:13:21;63403.38;;;10.58;100.00
7832;BME280;3961;42.058;25.586;2023-04-28T04:15:46;63402.31;;;10.53;100.00
7832;BME280;3961;42.058;25.586;2023-04-28T04:18:12;63399.09;;;10.52;100.00
7832;BME280;3961;42.058;25.586;2023-04-28T04:20:39;63402.00;;;10.55;100.00
7832;BME280;3961;42.058;25.586;2023-04-28T04:23:04;63410.41;;;10.60;100.00
7832;BME280;3961;42.058;25.586;2023-04-28T04:25:29;63398.53;;;10.52;100.00
7832;BME280;3961;42.058;25.586;2023-04-28T04:27:57;63402.81;;;10.58;100.00
7832;BME280;3961;42.058;25.586;2023-04-28T04:30:22;63422.56;;;10.70;100.00
7832;BME280;3961;42.058;25.586;2023-04-28T04:32:48;63391.34;;;10.43;100.00
7832;BME280;3961;42.058;25.586;2023-04-28T04:35:13;63410.41;;;10.60;100.00
7832;BME280;3961;42.058;25.586;2023-04-28T04:37:39;63436.06;;;10.85;100.00
7832;BME280;3961;42.058;25.586;2023-04-28T04:40:25;63446.81;;;10.92;100.00
7832;BME280;3961;42.058;25.586;2023-04-28T04:42:50;63453.97;;;11.00;100.00
7832;BME280;3961;42.058;25.586;2023-04-28T04:45:16;63469.91;;;11.12;100.00
7832;BME280;3961;42.058;25.586;2023-04-28T04:47:42;63491.88;;;11.31;100.00
7832;BME280;3961;42.058;25.586;2023-04-28T04:50:08;63506.56;;;11.47;100.00
7832;BME280;3961;42.058;25.586;2023-04-28T04:52:33;63503.66;;;11.44;100.00
7832;BME280;3961;42.058;25.586;2023-04-28T04:54:59;63514.06;;;11.53;100.00
7832;BME280;3961;42.058;25.586;2023-04-28T04:57:25;63509.22;;;11.47;100.00
7832;BME280;3961;42.058;25.586;2023-04-28T04:59:50;63477.19;;;11.16;98.04
7832;BME280;3961;42.058;25.586;2023-04-28T05:02:16;63482.06;;;11.23;98.14
7832;BME280;3961;42.058;25.586;2023-04-28T05:04:41;63487.03;;;11.25;97.64
7832;BME280;3961;42.058;25.586;2023-04-28T05:07:07;63499.97;;;11.38;97.86
7832;BME280;3961;42.058;25.586;2023-04-28T05:09:32;63509.22;;;11.47;97.78
7832;BME280;3961;42.058;25.586;2023-04-28T05:11:58;63521.94;;;11.58;97.60
7832;BME280;3961;42.058;25.586;2023-04-28T05:14:23;63450.28;;;10.95;95.83
7832;BME280;3961;42.058;25.586;2023-04-28T05:16:49;63428.78;;;10.81;97.07
7832;BME280;3961;42.058;25.586;2023-04-28T05:19:15;63432.94;;;10.80;98.83
7832;BME280;3961;42.058;25.586;2023-04-28T05:21:40;63386.75;;;10.39;97.19
7832;BME280;3961;42.058;25.586;2023-04-28T05:24:06;63395.41;;;10.47;97.97
7832;BME280;3961;42.058;25.586;2023-04-28T05:26:31;63436.97;;;10.83;96.02
7832;BME280;3961;42.058;25.586;2023-04-28T05:28:57;63429.94;;;10.82;93.48
7832;BME280;3961;42.058;25.586;2023-04-28T05:31:22;63412.72;;;10.62;93.06
7832;BME280;3961;42.058;25.586;2023-04-28T05:33:48;63433.16;;;10.82;92.46
7832;BME280;3961;42.058;25.586;2023-04-28T05:36:13;63446.81;;;10.92;92.43
7832;BME280;3961;42.058;25.586;2023-04-28T05:38:42;63450.28;;;10.95;91.15
7832;BME280;3961;42.058;25.586;2023-04-28T05:41:07;63474.53;;;11.16;91.45
7832;BME280;3961;42.058;25.586;2023-04-28T05:43:33;63459.53;;;11.03;91.68
7832;BME280;3961;42.058;25.586;2023-04-28T05:45:59;63453.16;;;10.97;93.00
7832;BME280;3961;42.058;25.586;2023-04-28T05:48:25;63421.41;;;10.69;94.90
7832;BME280;3961;42.058;25.586;2023-04-28T05:50:50;63431.78;;;10.78;95.74
7832;BME280;3961;42.058;25.586;2023-04-28T05:53:16;63432.59;;;10.82;94.32
7832;BME280;3961;42.058;25.586;2023-04-28T05:55:42;63468.41;;;11.13;93.62
7832;BME280;3961;42.058;25.586;2023-04-28T05:58:07;63416.09;;;10.69;92.80
7832;BME280;3961;42.058;25.586;2023-04-28T06:00:33;63473.03;;;11.17;92.75
7832;BME280;3961;42.058;25.586;2023-04-28T06:02:59;63557.81;;;11.89;96.39
7832;BME280;3961;42.058;25.586;2023-04-28T06:05:24;63729.75;;;13.40;93.13
7832;BME280;3961;42.058;25.586;2023-04-28T06:07:50;63645.41;;;12.68;87.07
7832;BME280;3961;42.058;25.586;2023-04-28T06:10:17;63674.13;;;12.91;91.25
7832;BME280;3961;42.058;25.586;2023-04-28T06:12:43;63738.69;;;13.50;90.59
7832;BME280;3961;42.058;25.586;2023-04-28T06:15:08;63726.28;;;13.37;89.40
7832;BME280;3961;42.058;25.586;2023-04-28T06:17:34;63702.84;;;13.14;83.79
7832;BME280;3961;42.058;25.586;2023-04-28T06:19:59;63747.94;;;13.58;85.83
7832;BME280;3961;42.058;25.586;2023-04-28T06:22:25;63847.19;;;14.40;86.47
7832;BME280;3961;42.058;25.586;2023-04-28T06:24:50;63860.91;;;14.62;83.65
7832;BME280;3961;42.058;25.586;2023-04-28T06:27:16;63815.75;;;14.18;84.62
7832;BME280;3961;42.058;25.586;2023-04-28T06:29:41;63834.66;;;14.32;82.42
7832;BME280;3961;42.058;25.586;2023-04-28T06:32:07;63774.38;;;13.79;84.00
7832;BME280;3961;42.058;25.586;2023-04-28T06:34:33;63697.88;;;13.12;83.17
7832;BME280;3961;42.058;25.586;2023-04-28T06:36:59;63685.13;;;13.01;84.50
7832;BME280;3961;42.058;25.586;2023-04-28T06:39:24;63693.22;;;13.08;86.24
7832;BME280;3961;42.058;25.586;2023-04-28T06:41:50;63719.34;;;13.31;85.21
7832;BME280;3961;42.058;25.586;2023-04-28T06:44:15;63764.16;;;13.72;85.31
7832;BME280;3961;42.058;25.586;2023-04-28T06:46:41;63799.53;;;14.03;81.73
7832;BME280;3961;42.058;25.586;2023-04-28T06:49:06;63709.72;;;13.25;85.26
7832;BME280;3961;42.058;25.586;2023-04-28T06:51:32;63659.66;;;12.78;86.68
7832;BME280;3961;42.058;25.586;2023-04-28T06:53:58;63631.19;;;12.58;84.90
7832;BME280;3961;42.058;25.586;2023-04-28T06:56:24;63628.41;;;12.51;85.80
7832;BME280;3961;42.058;25.586;2023-04-28T06:58:50;63643.09;;;12.66;85.42
7832;BME280;3961;42.058;25.586;2023-04-28T07:01:16;63698.44;;;13.12;83.47
7832;BME280;3961;42.058;25.586;2023-04-28T07:03:41;63748.28;;;13.56;86.25
7832;BME280;3961;42.058;25.586;2023-04-28T07:06:07;63797.34;;;13.97;83.65
7832;BME280;3961;42.058;25.586;2023-04-28T07:08:34;63742.84;;;13.49;82.47
7832;BME280;3961;42.058;25.586;2023-04-28T07:10:59;63703.69;;;13.17;82.93
7832;BME280;3961;42.058;25.586;2023-04-28T07:15:29;63817.50;;;14.19;81.87
7832;BME280;3961;42.058;25.586;2023-04-28T07:17:55;63742.16;;;13.53;78.29
7832;BME280;3961;42.058;25.586;2023-04-28T07:20:21;63707.50;;;13.18;75.82
7832;BME280;3961;42.058;25.586;2023-04-28T07:22:46;63741.34;;;13.50;78.21
7832;BME280;3961;42.058;25.586;2023-04-28T07:25:12;63709.47;;;13.22;75.03
7832;BME280;3961;42.058;25.586;2023-04-28T07:27:37;63697.53;;;13.14;77.41
7832;BME280;3961;42.058;25.586;2023-04-28T07:30:03;63708.31;;;13.21;77.00
7832;BME280;3961;42.058;25.586;2023-04-28T07:32:29;63780.50;;;13.82;76.54
7832;BME280;3961;42.058;25.586;2023-04-28T07:34:54;63853.25;;;14.48;77.14
7832;BME280;3961;42.058;25.586;2023-04-28T07:37:21;63799.88;;;14.01;75.48
7832;BME280;3961;42.058;25.586;2023-04-28T07:39:46;63779.59;;;13.84;74.83
7832;BME280;3961;42.058;25.586;2023-04-28T07:42:12;63756.41;;;13.63;75.92
7832;BME280;3961;42.058;25.586;2023-04-28T07:44:37;63763.59;;;13.72;77.53
7832;BME280;3961;42.058;25.586;2023-04-28T07:47:03;63842.53;;;14.36;76.24
7832;BME280;3961;42.058;25.586;2023-04-28T07:49:28;63884.00;;;14.75;75.35
7832;BME280;3961;42.058;25.586;2023-04-28T07:51:54;63891.88;;;14.79;75.23
7832;BME280;3961;42.058;25.586;2023-04-28T07:54:21;63773.56;;;13.76;75.41
7832;BME280;3961;42.058;25.586;2023-04-28T07:56:46;63754.09;;;13.61;76.16
7832;BME280;3961;42.058;25.586;2023-04-28T07:59:12;63806.81;;;14.07;77.39
7832;BME280;3961;42.058;25.586;2023-04-28T08:01:38;63867.75;;;14.61;75.05
7832;BME280;3961;42.058;25.586;2023-04-28T08:04:03;63977.13;;;15.59;72.01
7832;BME280;3961;42.058;25.586;2023-04-28T08:06:29;63928.44;;;15.11;71.00
7832;BME280;3961;42.058;25.586;2023-04-28T08:08:54;63913.56;;;15.01;71.49
7832;BME280;3961;42.058;25.586;2023-04-28T08:11:20;63965.47;;;15.49;66.79
7832;BME280;3961;42.058;25.586;2023-04-28T08:13:47;64028.56;;;16.01;66.56
7832;BME280;3961;42.058;25.586;2023-04-28T08:16:13;63963.50;;;15.44;64.79
7832;BME280;3961;42.058;25.586;2023-04-28T08:18:39;63899.09;;;14.88;64.73
7832;BME280;3961;42.058;25.586;2023-04-28T08:21:05;63843.13;;;14.37;64.67
7832;BME280;3961;42.058;25.586;2023-04-28T08:23:30;63835.47;;;14.35;65.32
7832;BME280;3961;42.058;25.586;2023-04-28T08:25:57;63823.66;;;14.22;65.93
7832;BME280;3961;42.058;25.586;2023-04-28T08:28:22;63809.72;;;14.10;65.25
7832;BME280;3961;42.058;25.586;2023-04-28T08:30:48;63905.81;;;14.92;62.54
7832;BME280;3961;42.058;25.586;2023-04-28T08:33:13;63884.34;;;14.73;60.80
7832;BME280;3961;42.058;25.586;2023-04-28T08:35:39;63908.94;;;14.97;62.02
7832;BME280;3961;42.058;25.586;2023-04-28T08:38:05;63951.31;;;15.34;61.07
7832;BME280;3961;42.058;25.586;2023-04-28T08:40:31;63919.38;;;15.06;60.63
7832;BME280;3961;42.058;25.586;2023-04-28T08:42:58;63902.34;;;14.89;60.66
7832;BME280;3961;42.058;25.586;2023-04-28T08:45:24;63832.69;;;14.28;60.45
7832;BME280;3961;42.058;25.586;2023-04-28T08:47:50;63932.50;;;15.15;61.19
7832;BME280;3961;42.058;25.586;2023-04-28T08:50:20;64044.03;;;16.12;59.33
7832;BME280;3961;42.058;25.586;2023-04-28T08:52:47;63999.66;;;15.71;54.85
7832;BME280;3961;42.058;25.586;2023-04-28T08:55:12;63991.97;;;15.69;54.18
7832;BME280;3961;42.058;25.586;2023-04-28T08:57:42;63970.84;;;15.49;54.70
7832;BME280;3961;42.058;25.586;2023-04-28T09:00:09;64059.84;;;16.33;52.50
7832;BME280;3961;42.058;25.586;2023-04-28T09:02:34;63988.63;;;15.62;51.48
7832;BME280;3961;42.058;25.586;2023-04-28T09:05:03;64029.75;;;16.02;54.72
7832;BME280;3961;42.058;25.586;2023-04-28T09:07:29;64098.91;;;16.63;51.96
7832;BME280;3961;42.058;25.586;2023-04-28T09:10:17;64155.13;;;17.09;50.41
7832;BME280;3961;42.058;25.586;2023-04-28T09:12:43;64170.44;;;17.25;52.39
7832;BME280;3961;42.058;25.586;2023-04-28T09:15:09;64185.59;;;17.38;49.82
7832;BME280;3961;42.058;25.586;2023-04-28T09:17:55;64145.09;;;17.05;50.39
7832;BME280;3961;42.058;25.586;2023-04-28T09:20:25;64064.25;;;16.35;51.82
7832;BME280;3961;42.058;25.586;2023-04-28T09:22:52;63944.81;;;15.33;52.00
7832;BME280;3961;42.058;25.586;2023-04-28T09:25:19;63931.59;;;15.17;52.21
7832;BME280;3961;42.058;25.586;2023-04-28T09:27:51;64072.75;;;16.40;53.37
7832;BME280;3961;42.058;25.586;2023-04-28T09:30:17;64031.72;;;16.06;53.01
7832;BME280;3961;42.058;25.586;2023-04-28T09:32:43;64107.06;;;16.70;52.33
7832;BME280;3961;42.058;25.586;2023-04-28T09:35:08;64028.94;;;15.99;51.17
7832;BME280;3961;42.058;25.586;2023-04-28T09:37:35;64002.78;;;15.76;52.91
7832;BME280;3961;42.058;25.586;2023-04-28T09:40:07;64078.69;;;16.40;52.43
7832;BME280;3961;42.058;25.586;2023-04-28T09:42:40;64216.56;;;17.61;51.86
7832;BME280;3961;42.058;25.586;2023-04-28T09:45:11;64231.59;;;17.78;48.88
7832;BME280;3961;42.058;25.586;2023-04-28T09:47:39;64196.41;;;17.45;48.78
7832;BME280;3961;42.058;25.586;2023-04-28T09:50:08;64057.63;;;16.27;52.79
7832;BME280;3961;42.058;25.586;2023-04-28T09:52:36;64029.03;;;16.06;52.29
7832;BME280;3961;42.058;25.586;2023-04-28T09:55:05;63934.38;;;15.24;55.20
7832;BME280;3961;42.058;25.586;2023-04-28T09:57:34;63952.47;;;15.35;52.67
7832;BME280;3961;42.058;25.586;2023-04-28T10:00:01;63993.84;;;15.66;52.41
7832;BME280;3961;42.058;25.586;2023-04-28T10:02:30;64067.06;;;16.30;50.40
7832;BME280;3961;42.058;25.586;2023-04-28T10:04:56;64020.59;;;15.90;52.99
7832;BME280;3961;42.058;25.586;2023-04-28T10:07:22;64055.31;;;16.25;51.70
7832;BME280;3961;42.058;25.586;2023-04-28T10:09:49;64029.97;;;16.05;51.69
7832;BME280;3961;42.058;25.586;2023-04-28T10:12:24;64071.22;;;16.41;51.59
7832;BME280;3961;42.058;25.586;2023-04-28T10:14:50;64133.00;;;16.90;51.06
7832;BME280;3961;42.058;25.586;2023-04-28T10:17:20;64177.91;;;17.36;52.51
7832;BME280;3961;42.058;25.586;2023-04-28T10:19:48;64269.44;;;18.11;50.14
7832;BME280;3961;42.058;25.586;2023-04-28T10:25:30;64164.88;;;17.23;50.68
7832;BME280;3961;42.058;25.586;2023-04-28T10:27:57;64124.16;;;16.87;50.62
7832;BME280;3961;42.058;25.586;2023-04-28T10:30:26;64139.41;;;16.96;50.26
7832;BME280;3961;42.058;25.586;2023-04-28T10:35:48;64262.69;;;18.08;49.73
7832;BME280;3961;42.058;25.586;2023-04-28T10:38:15;64249.84;;;17.97;49.40
7832;BME280;3961;42.058;25.586;2023-04-28T10:40:42;64141.50;;;16.95;51.21
7832;BME280;3961;42.058;25.586;2023-04-28T10:43:10;64191.63;;;17.46;50.56
7832;BME280;3961;42.058;25.586;2023-04-28T10:48:21;64325.47;;;18.56;49.47
7832;BME280;3961;42.058;25.586;2023-04-28T10:56:12;64227.28;;;17.72;49.11
7832;BME280;3961;42.058;25.586;2023-04-28T10:58:46;64212.34;;;17.62;49.98
7832;BME280;3961;42.058;25.586;2023-04-28T11:01:33;64225.78;;;17.73;49.48
7832;BME280;3961;42.058;25.586;2023-04-28T11:04:07;64312.53;;;18.49;49.84
7832;BME280;3961;42.058;25.586;2023-04-28T11:06:42;64374.91;;;19.03;48.98
7832;BME280;3961;42.058;25.586;2023-04-28T11:19:21;64415.25;;;19.34;45.32
7832;BME280;3961;42.058;25.586;2023-04-28T11:21:49;64212.34;;;17.62;48.47
7832;BME280;3961;42.058;25.586;2023-04-28T11:24:15;64059.59;;;16.31;51.04
7832;BME280;3961;42.058;25.586;2023-04-28T11:26:42;64077.41;;;16.44;51.28
7832;BME280;3961;42.058;25.586;2023-04-28T11:29:09;64043.22;;;16.09;51.55
7832;BME280;3961;42.058;25.586;2023-04-28T11:31:34;64013.84;;;15.86;50.97
7832;BME280;3961;42.058;25.586;2023-04-28T11:34:09;64046.59;;;16.17;51.36
7832;BME280;3961;42.058;25.586;2023-04-28T11:36:40;64106.47;;;16.69;50.94
7832;BME280;3961;42.058;25.586;2023-04-28T11:39:07;64127.78;;;16.86;51.80
7832;BME280;3961;42.058;25.586;2023-04-28T11:41:34;64143.81;;;16.97;49.39
7832;BME280;3961;42.058;25.586;2023-04-28T11:44:11;64171.03;;;17.26;50.27
7832;BME280;3961;42.058;25.586;2023-04-28T11:46:54;64210.97;;;17.58;49.79
7832;BME280;3961;42.058;25.586;2023-04-28T11:49:23;64228.22;;;17.71;51.78
7832;BME280;3961;42.058;25.586;2023-04-28T11:51:52;64250.34;;;17.90;50.02
7832;BME280;3961;42.058;25.586;2023-04-28T11:54:25;64286.91;;;18.27;49.77
7832;BME280;3961;42.058;25.586;2023-04-28T11:56:52;64263.38;;;18.04;50.76
7832;BME280;3961;42.058;25.586;2023-04-28T11:59:18;64183.25;;;17.36;48.50
7832;BME280;3961;42.058;25.586;2023-04-28T12:01:54;64097.16;;;16.61;49.55
7832;BME280;3961;42.058;25.586;2023-04-28T12:04:31;64085.53;;;16.51;50.72
7832;BME280;3961;42.058;25.586;2023-04-28T12:09:39;64047.53;;;16.16;52.42
7832;BME280;3961;42.058;25.586;2023-04-28T12:12:12;64028.94;;;15.99;50.84
7832;BME280;3961;42.058;25.586;2023-04-28T12:17:29;64055.69;;;16.23;52.33
7832;BME280;3961;42.058;25.586;2023-04-28T12:19:57;64072.16;;;16.39;51.19
7832;BME280;3961;42.058;25.586;2023-04-28T12:22:23;64116.59;;;16.81;50.93
7832;BME280;3961;42.058;25.586;2023-04-28T12:25:05;64164.19;;;17.15;49.27
7832;BME280;3961;42.058;25.586;2023-04-28T12:27:33;64142.31;;;16.98;50.53
7832;BME280;3961;42.058;25.586;2023-04-28T12:29:59;64108.47;;;16.73;51.13
7832;BME280;3961;42.058;25.586;2023-04-28T12:32:38;64069.25;;;16.37;51.36
7832;BME280;3961;42.058;25.586;2023-04-28T12:35:05;64080.19;;;16.51;53.45
7832;BME280;3961;42.058;25.586;2023-04-28T12:37:30;64072.88;;;16.35;51.50
7832;BME280;3961;42.058;25.586;2023-04-28T12:39:57;64051.25;;;16.21;52.55
7832;BME280;3961;42.058;25.586;2023-04-28T12:42:22;63985.81;;;15.66;51.81
7832;BME280;3961;42.058;25.586;2023-04-28T12:44:48;64031.84;;;16.02;52.90
7832;BME280;3961;42.058;25.586;2023-04-28T12:47:15;64050.44;;;16.18;52.56
7832;BME280;3961;42.058;25.586;2023-04-28T12:49:42;64080.06;;;16.44;55.36
7832;BME280;3961;42.058;25.586;2023-04-28T12:52:09;64109.63;;;16.74;51.50
7832;BME280;3961;42.058;25.586;2023-04-28T12:54:34;64118.69;;;16.80;52.18
7832;BME280;3961;42.058;25.586;2023-04-28T12:57:00;64094.03;;;16.56;51.51
7832;BME280;3961;42.058;25.586;2023-04-28T12:59:26;64063.22;;;16.29;50.45
7832;BME280;3961;42.058;25.586;2023-04-28T13:01:53;64069.50;;;16.39;51.39
7832;BME280;3961;42.058;25.586;2023-04-28T13:04:20;64110.31;;;16.70;51.58
7832;BME280;3961;42.058;25.586;2023-04-28T13:06:46;64089.47;;;16.59;50.86
7832;BME280;3961;42.058;25.586;2023-04-28T13:09:13;64149.06;;;17.02;52.03
7832;BME280;3961;42.058;25.586;2023-04-28T13:11:42;64201.09;;;17.50;50.56
7832;BME280;3961;42.058;25.586;2023-04-28T13:14:07;64106.47;;;16.69;51.16
7832;BME280;3961;42.058;25.586;2023-04-28T13:16:34;64184.44;;;17.37;50.73
7832;BME280;3961;42.058;25.586;2023-04-28T13:19:00;64139.97;;;16.96;50.20
7832;BME280;3961;42.058;25.586;2023-04-28T13:21:26;64231.59;;;17.78;49.40
7832;BME280;3961;42.058;25.586;2023-04-28T13:23:53;64277.00;;;18.18;47.97
7832;BME280;3961;42.058;25.586;2023-04-28T13:26:19;64298.56;;;18.37;49.52
7832;BME280;3961;42.058;25.586;2023-04-28T13:28:46;64223.22;;;17.69;48.45
7832;BME280;3961;42.058;25.586;2023-04-28T13:31:13;64194.91;;;17.46;48.98
7832;BME280;3961;42.058;25.586;2023-04-28T13:33:38;64227.41;;;17.68;47.51
7832;BME280;3961;42.058;25.586;2023-04-28T13:36:04;64210.59;;;17.60;48.72
7832;BME280;3961;42.058;25.586;2023-04-28T13:38:29;64204.56;;;17.53;49.48